sensor_id;sensor_type;location;lat;lon;timestamp;P1;durP1;ratioP1;P2;durP2;ratioP2
12171;SDS011;6149;52.418;13.668;2023-11-19T00:02:24;6.70;;;5.97;;
12171;SDS011;6149;52.418;13.668;2023-11-19T00:04:53;7.07;;;5.70;;
12171;SDS011;6149;52.418;13.668;2023-11-19T00:07:19;8.90;;;6.20;;
12171;SDS011;6149;52.418;13.668;2023-11-19T00:09:46;8.70;;;6.20;;
12171;SDS011;6149;52.418;13.668;2023-11-19T00:12:12;7.47;;;6.23;;
12171;SDS011;6149;52.418;13.668;2023-11-19T00:14:39;6.77;;;5.97;;
12171;SDS011;6149;52.418;13.668;2023-11-19T00:17:06;7.87;;;6.20;;
12171;SDS011;6149;52.418;13.668;2023-11-19T00:19:32;8.83;;;6.37;;
12171;SDS011;6149;52.418;13.668;2023-11-19T00:22:00;7.43;;;6.73;;
12171;SDS011;6149;52.418;13.668;2023-11-19T00:24:28;7.00;;;5.93;;
12171;SDS011;6149;52.418;13.668;2023-11-19T00:26:55;7.80;;;6.10;;
12171;SDS011;6149;52.418;13.668;2023-11-19T00:29:22;8.13;;;6.10;;
12171;SDS011;6149;52.418;13.668;2023-11-19T00:31:48;8.43;;;6.07;;
12171;SDS011;6149;52.418;13.668;2023-11-19T00:34:15;6.37;;;5.77;;
12171;SDS011;6149;52.418;13.668;2023-11-19T00:36:46;7.03;;;6.03;;
12171;SDS011;6149;52.418;13.668;2023-11-19T00:39:14;8.30;;;6.07;;
12171;SDS011;6149;52.418;13.668;2023-11-19T00:41:41;6.93;;;5.70;;
12171;SDS011;6149;52.418;13.668;2023-11-19T00:44:08;7.23;;;5.50;;
12171;SDS011;6149;52.418;13.668;2023-11-19T00:46:35;6.70;;;5.50;;
12171;SDS011;6149;52.418;13.668;2023-11-19T00:49:01;7.77;;;5.73;;
12171;SDS011;6149;52.418;13.668;2023-11-19T00:51:28;7.40;;;5.90;;
12171;SDS011;6149;52.418;13.668;2023-11-19T00:53:56;8.97;;;6.30;;
12171;SDS011;6149;52.418;13.668;2023-11-19T00:56:24;7.03;;;5.83;;
12171;SDS011;6149;52.418;13.668;2023-11-19T00:58:51;8.03;;;6.20;;
12171;SDS011;6149;52.418;13.668;2023-11-19T01:01:17;6.60;;;5.57;;
12171;SDS011;6149;52.418;13.668;2023-11-19T01:03:44;8.10;;;5.63;;
12171;SDS011;6149;52.418;13.668;2023-11-19T01:06:10;10.53;;;6.13;;
12171;SDS011;6149;52.418;13.668;2023-11-19T01:08:39;8.40;;;5.73;;
12171;SDS011;6149;52.418;13.668;2023-11-19T01:11:05;7.33;;;5.90;;
12171;SDS011;6149;52.418;13.668;2023-11-19T01:13:34;7.60;;;5.43;;
12171;SDS011;6149;52.418;13.668;2023-11-19T01:16:01;7.70;;;5.97;;
12171;SDS011;6149;52.418;13.668;2023-11-19T01:18:27;6.43;;;5.53;;
12171;SDS011;6149;52.418;13.668;2023-11-19T01:20:55;7.30;;;5.90;;
12171;SDS011;6149;52.418;13.668;2023-11-19T01:23:23;7.67;;;6.20;;
12171;SDS011;6149;52.418;13.668;2023-11-19T01:25:49;6.30;;;5.57;;
12171;SDS011;6149;52.418;13.668;2023-11-19T01:28:16;7.27;;;5.77;;
12171;SDS011;6149;52.418;13.668;2023-11-19T01:30:44;7.23;;;5.73;;
12171;SDS011;6149;52.418;13.668;2023-11-19T01:33:10;7.47;;;6.03;;
12171;SDS011;6149;52.418;13.668;2023-11-19T01:35:39;8.07;;;5.70;;
12171;SDS011;6149;52.418;13.668;2023-11-19T01:38:06;6.53;;;5.83;;
12171;SDS011;6149;52.418;13.668;2023-11-19T01:40:33;6.17;;;5.40;;
12171;SDS011;6149;52.418;13.668;2023-11-19T01:43:01;9.23;;;5.80;;
12171;SDS011;6149;52.418;13.668;2023-11-19T01:45:29;6.73;;;5.37;;
12171;SDS011;6149;52.418;13.668;2023-11-19T01:48:00;7.90;;;5.83;;
12171;SDS011;6149;52.418;13.668;2023-11-19T01:50:29;8.50;;;5.70;;
12171;SDS011;6149;52.418;13.668;2023-11-19T01:52:56;6.63;;;5.43;;
12171;SDS011;6149;52.418;13.668;2023-11-19T01:55:23;6.90;;;5.23;;
12171;SDS011;6149;52.418;13.668;2023-11-19T01:57:53;7.87;;;5.43;;
12171;SDS011;6149;52.418;13.668;2023-11-19T02:00:21;5.70;;;5.17;;
12171;SDS011;6149;52.418;13.668;2023-11-19T02:02:48;5.90;;;5.17;;
12171;SDS011;6149;52.418;13.668;2023-11-19T02:05:16;7.93;;;5.40;;
12171;SDS011;6149;52.418;13.668;2023-11-19T02:07:43;9.00;;;5.77;;
12171;SDS011;6149;52.418;13.668;2023-11-19T02:10:11;6.33;;;5.30;;
12171;SDS011;6149;52.418;13.668;2023-11-19T02:12:40;7.37;;;5.33;;
12171;SDS011;6149;52.418;13.668;2023-11-19T02:15:09;7.60;;;5.80;;
12171;SDS011;6149;52.418;13.668;2023-11-19T02:17:35;8.27;;;5.57;;
12171;SDS011;6149;52.418;13.668;2023-11-19T02:20:03;8.03;;;5.90;;
12171;SDS011;6149;52.418;13.668;2023-11-19T02:22:35;7.70;;;5.93;;
12171;SDS011;6149;52.418;13.668;2023-11-19T02:25:04;7.53;;;5.80;;
12171;SDS011;6149;52.418;13.668;2023-11-19T02:30:23;8.90;;;6.50;;
12171;SDS011;6149;52.418;13.668;2023-11-19T02:32:51;7.73;;;6.50;;
12171;SDS011;6149;52.418;13.668;2023-11-19T02:35:19;8.40;;;6.47;;
12171;SDS011;6149;52.418;13.668;2023-11-19T02:37:46;9.77;;;6.03;;
12171;SDS011;6149;52.418;13.668;2023-11-19T02:40:13;6.90;;;6.03;;
12171;SDS011;6149;52.418;13.668;2023-11-19T02:42:40;7.50;;;6.33;;
12171;SDS011;6149;52.418;13.668;2023-11-19T02:45:09;6.57;;;5.80;;
12171;SDS011;6149;52.418;13.668;2023-11-19T02:47:39;8.47;;;6.30;;
12171;SDS011;6149;52.418;13.668;2023-11-19T02:50:07;9.93;;;5.97;;
12171;SDS011;6149;52.418;13.668;2023-11-19T02:52:39;7.07;;;5.70;;
12171;SDS011;6149;52.418;13.668;2023-11-19T02:55:07;9.77;;;6.27;;
12171;SDS011;6149;52.418;13.668;2023-11-19T02:57:37;7.73;;;5.30;;
12171;SDS011;6149;52.418;13.668;2023-11-19T03:00:06;7.50;;;5.30;;
12171;SDS011;6149;52.418;13.668;2023-11-19T03:02:38;5.87;;;4.80;;
12171;SDS011;6149;52.418;13.668;2023-11-19T03:05:10;6.83;;;5.70;;
12171;SDS011;6149;52.418;13.668;2023-11-19T03:07:36;6.07;;;5.00;;
12171;SDS011;6149;52.418;13.668;2023-11-19T03:10:03;7.20;;;4.53;;
12171;SDS011;6149;52.418;13.668;2023-11-19T03:12:31;5.83;;;4.97;;
12171;SDS011;6149;52.418;13.668;2023-11-19T03:14:58;6.77;;;5.00;;
12171;SDS011;6149;52.418;13.668;2023-11-19T03:17:25;6.13;;;4.40;;
12171;SDS011;6149;52.418;13.668;2023-11-19T03:19:52;6.50;;;4.73;;
12171;SDS011;6149;52.418;13.668;2023-11-19T03:22:19;6.43;;;4.67;;
12171;SDS011;6149;52.418;13.668;2023-11-19T03:24:46;5.60;;;4.70;;
12171;SDS011;6149;52.418;13.668;2023-11-19T03:27:12;5.43;;;4.33;;
12171;SDS011;6149;52.418;13.668;2023-11-19T03:29:39;5.37;;;4.87;;
12171;SDS011;6149;52.418;13.668;2023-11-19T03:32:05;6.80;;;5.53;;
12171;SDS011;6149;52.418;13.668;2023-11-19T03:34:34;6.13;;;4.77;;
12171;SDS011;6149;52.418;13.668;2023-11-19T03:37:00;5.80;;;5.10;;
12171;SDS011;6149;52.418;13.668;2023-11-19T03:39:28;7.47;;;5.30;;
12171;SDS011;6149;52.418;13.668;2023-11-19T03:41:55;6.80;;;5.33;;
12171;SDS011;6149;52.418;13.668;2023-11-19T03:44:20;5.50;;;4.73;;
12171;SDS011;6149;52.418;13.668;2023-11-19T03:46:47;6.53;;;5.00;;
12171;SDS011;6149;52.418;13.668;2023-11-19T03:49:14;8.07;;;5.10;;
12171;SDS011;6149;52.418;13.668;2023-11-19T03:51:41;7.00;;;5.43;;
12171;SDS011;6149;52.418;13.668;2023-11-19T03:54:08;6.27;;;4.67;;
12171;SDS011;6149;52.418;13.668;2023-11-19T03:56:36;6.93;;;5.33;;
12171;SDS011;6149;52.418;13.668;2023-11-19T03:59:03;6.30;;;5.20;;
12171;SDS011;6149;52.418;13.668;2023-11-19T04:01:30;6.53;;;4.67;;
12171;SDS011;6149;52.418;13.668;2023-11-19T04:03:57;6.90;;;5.33;;
12171;SDS011;6149;52.418;13.668;2023-11-19T04:06:24;8.37;;;6.23;;
12171;SDS011;6149;52.418;13.668;2023-11-19T04:08:53;7.70;;;5.83;;
12171;SDS011;6149;52.418;13.668;2023-11-19T04:11:19;7.57;;;6.13;;
12171;SDS011;6149;52.418;13.668;2023-11-19T04:13:46;9.17;;;5.97;;
12171;SDS011;6149;52.418;13.668;2023-11-19T04:16:13;10.10;;;6.97;;
12171;SDS011;6149;52.418;13.668;2023-11-19T04:18:40;13.73;;;7.20;;
12171;SDS011;6149;52.418;13.668;2023-11-19T04:21:06;9.03;;;6.37;;
12171;SDS011;6149;52.418;13.668;2023-11-19T04:23:34;8.40;;;6.93;;
12171;SDS011;6149;52.418;13.668;2023-11-19T04:26:03;12.07;;;7.17;;
12171;SDS011;6149;52.418;13.668;2023-11-19T04:28:31;11.30;;;7.87;;
12171;SDS011;6149;52.418;13.668;2023-11-19T04:30:58;10.53;;;7.10;;
12171;SDS011;6149;52.418;13.668;2023-11-19T04:33:25;9.00;;;7.27;;
12171;SDS011;6149;52.418;13.668;2023-11-19T04:35:51;10.57;;;8.33;;
12171;SDS011;6149;52.418;13.668;2023-11-19T04:38:18;10.87;;;7.57;;
12171;SDS011;6149;52.418;13.668;2023-11-19T04:40:44;11.40;;;8.57;;
12171;SDS011;6149;52.418;13.668;2023-11-19T04:43:12;9.90;;;7.80;;
12171;SDS011;6149;52.418;13.668;2023-11-19T04:45:40;11.03;;;8.60;;
12171;SDS011;6149;52.418;13.668;2023-11-19T04:48:07;10.67;;;7.77;;
12171;SDS011;6149;52.418;13.668;2023-11-19T04:50:34;11.43;;;8.87;;
12171;SDS011;6149;52.418;13.668;2023-11-19T04:53:00;10.07;;;7.77;;
12171;SDS011;6149;52.418;13.668;2023-11-19T04:55:28;11.73;;;8.53;;
12171;SDS011;6149;52.418;13.668;2023-11-19T04:57:54;14.37;;;9.43;;
12171;SDS011;6149;52.418;13.668;2023-11-19T05:00:24;11.43;;;8.77;;
12171;SDS011;6149;52.418;13.668;2023-11-19T05:02:51;12.27;;;8.97;;
12171;SDS011;6149;52.418;13.668;2023-11-19T05:05:17;13.47;;;9.80;;
12171;SDS011;6149;52.418;13.668;2023-11-19T05:07:44;11.73;;;9.13;;
12171;SDS011;6149;52.418;13.668;2023-11-19T05:10:11;13.40;;;10.30;;
12171;SDS011;6149;52.418;13.668;2023-11-19T05:12:38;12.53;;;9.37;;
12171;SDS011;6149;52.418;13.668;2023-11-19T05:15:05;13.00;;;9.00;;
12171;SDS011;6149;52.418;13.668;2023-11-19T05:17:35;15.43;;;10.07;;
12171;SDS011;6149;52.418;13.668;2023-11-19T05:20:05;10.67;;;8.97;;
12171;SDS011;6149;52.418;13.668;2023-11-19T05:22:38;10.97;;;8.60;;
12171;SDS011;6149;52.418;13.668;2023-11-19T05:25:08;12.33;;;9.60;;
12171;SDS011;6149;52.418;13.668;2023-11-19T05:27:35;11.53;;;9.13;;
12171;SDS011;6149;52.418;13.668;2023-11-19T05:30:02;17.33;;;9.90;;
12171;SDS011;6149;52.418;13.668;2023-11-19T05:32:32;13.80;;;10.37;;
12171;SDS011;6149;52.418;13.668;2023-11-19T05:35:00;13.70;;;10.23;;
12171;SDS011;6149;52.418;13.668;2023-11-19T05:37:28;14.43;;;8.87;;
12171;SDS011;6149;52.418;13.668;2023-11-19T05:39:54;12.87;;;9.23;;
12171;SDS011;6149;52.418;13.668;2023-11-19T05:42:21;14.13;;;9.90;;
12171;SDS011;6149;52.418;13.668;2023-11-19T05:44:48;12.53;;;9.87;;
12171;SDS011;6149;52.418;13.668;2023-11-19T05:47:15;14.00;;;10.40;;
12171;SDS011;6149;52.418;13.668;2023-11-19T05:49:41;14.50;;;10.90;;
12171;SDS011;6149;52.418;13.668;2023-11-19T05:52:11;13.10;;;9.97;;
12171;SDS011;6149;52.418;13.668;2023-11-19T05:54:38;13.47;;;9.87;;
12171;SDS011;6149;52.418;13.668;2023-11-19T05:57:05;13.47;;;9.33;;
12171;SDS011;6149;52.418;13.668;2023-11-19T05:59:34;12.47;;;10.17;;
12171;SDS011;6149;52.418;13.668;2023-11-19T06:02:01;11.93;;;9.43;;
12171;SDS011;6149;52.418;13.668;2023-11-19T06:04:30;11.23;;;9.00;;
12171;SDS011;6149;52.418;13.668;2023-11-19T06:06:57;12.57;;;9.50;;
12171;SDS011;6149;52.418;13.668;2023-11-19T06:09:24;13.23;;;9.47;;
12171;SDS011;6149;52.418;13.668;2023-11-19T06:11:52;12.40;;;9.27;;
12171;SDS011;6149;52.418;13.668;2023-11-19T06:14:20;11.47;;;8.93;;
12171;SDS011;6149;52.418;13.668;2023-11-19T06:16:47;11.33;;;9.33;;
12171;SDS011;6149;52.418;13.668;2023-11-19T06:19:13;11.87;;;8.93;;
12171;SDS011;6149;52.418;13.668;2023-11-19T06:21:40;12.77;;;9.13;;
12171;SDS011;6149;52.418;13.668;2023-11-19T06:24:07;12.13;;;9.90;;
12171;SDS011;6149;52.418;13.668;2023-11-19T06:26:35;11.53;;;9.33;;
12171;SDS011;6149;52.418;13.668;2023-11-19T06:29:02;13.90;;;10.23;;
12171;SDS011;6149;52.418;13.668;2023-11-19T06:31:29;12.50;;;8.77;;
12171;SDS011;6149;52.418;13.668;2023-11-19T06:33:56;10.27;;;9.03;;
12171;SDS011;6149;52.418;13.668;2023-11-19T06:36:22;13.90;;;9.50;;
12171;SDS011;6149;52.418;13.668;2023-11-19T06:38:50;12.07;;;9.00;;
12171;SDS011;6149;52.418;13.668;2023-11-19T06:41:17;11.63;;;9.17;;
12171;SDS011;6149;52.418;13.668;2023-11-19T06:43:45;11.60;;;8.97;;
12171;SDS011;6149;52.418;13.668;2023-11-19T06:46:15;11.60;;;8.93;;
12171;SDS011;6149;52.418;13.668;2023-11-19T06:48:42;9.83;;;8.40;;
12171;SDS011;6149;52.418;13.668;2023-11-19T06:51:10;11.83;;;9.10;;
12171;SDS011;6149;52.418;13.668;2023-11-19T06:53:36;11.90;;;8.43;;
12171;SDS011;6149;52.418;13.668;2023-11-19T06:56:04;11.87;;;8.93;;
12171;SDS011;6149;52.418;13.668;2023-11-19T06:58:35;11.33;;;8.47;;
12171;SDS011;6149;52.418;13.668;2023-11-19T07:01:06;13.57;;;8.87;;
12171;SDS011;6149;52.418;13.668;2023-11-19T07:03:34;13.60;;;8.40;;
12171;SDS011;6149;52.418;13.668;2023-11-19T07:06:01;10.50;;;7.97;;
12171;SDS011;6149;52.418;13.668;2023-11-19T07:08:28;9.37;;;7.70;;
12171;SDS011;6149;52.418;13.668;2023-11-19T07:10:55;9.60;;;7.60;;
12171;SDS011;6149;52.418;13.668;2023-11-19T07:13:22;10.17;;;8.23;;
12171;SDS011;6149;52.418;13.668;2023-11-19T07:15:48;11.27;;;7.40;;
12171;SDS011;6149;52.418;13.668;2023-11-19T07:18:16;11.20;;;7.97;;
12171;SDS011;6149;52.418;13.668;2023-11-19T07:20:43;9.67;;;7.47;;
12171;SDS011;6149;52.418;13.668;2023-11-19T07:23:11;9.27;;;7.47;;
12171;SDS011;6149;52.418;13.668;2023-11-19T07:25:39;10.60;;;6.90;;
12171;SDS011;6149;52.418;13.668;2023-11-19T07:28:06;8.30;;;6.90;;
12171;SDS011;6149;52.418;13.668;2023-11-19T07:30:32;7.50;;;6.30;;
12171;SDS011;6149;52.418;13.668;2023-11-19T07:32:59;7.80;;;6.40;;
12171;SDS011;6149;52.418;13.668;2023-11-19T07:35:31;8.67;;;6.67;;
12171;SDS011;6149;52.418;13.668;2023-11-19T07:38:00;9.03;;;7.07;;
12171;SDS011;6149;52.418;13.668;2023-11-19T07:40:27;7.70;;;6.30;;
12171;SDS011;6149;52.418;13.668;2023-11-19T07:42:54;8.37;;;6.47;;
12171;SDS011;6149;52.418;13.668;2023-11-19T07:45:23;7.67;;;6.00;;
12171;SDS011;6149;52.418;13.668;2023-11-19T07:47:53;7.73;;;5.83;;
12171;SDS011;6149;52.418;13.668;2023-11-19T07:50:21;6.83;;;5.90;;
12171;SDS011;6149;52.418;13.668;2023-11-19T07:52:49;7.40;;;5.97;;
12171;SDS011;6149;52.418;13.668;2023-11-19T07:55:15;6.60;;;5.80;;
12171;SDS011;6149;52.418;13.668;2023-11-19T07:57:42;7.10;;;5.80;;
12171;SDS011;6149;52.418;13.668;2023-11-19T08:00:09;7.97;;;5.97;;
12171;SDS011;6149;52.418;13.668;2023-11-19T08:02:38;7.87;;;6.13;;
12171;SDS011;6149;52.418;13.668;2023-11-19T08:05:05;6.53;;;5.60;;
12171;SDS011;6149;52.418;13.668;2023-11-19T08:07:32;7.70;;;6.10;;
12171;SDS011;6149;52.418;13.668;2023-11-19T08:10:00;8.83;;;7.00;;
12171;SDS011;6149;52.418;13.668;2023-11-19T08:12:27;7.50;;;5.97;;
12171;SDS011;6149;52.418;13.668;2023-11-19T08:14:53;9.53;;;6.60;;
12171;SDS011;6149;52.418;13.668;2023-11-19T08:17:20;6.57;;;5.67;;
12171;SDS011;6149;52.418;13.668;2023-11-19T08:19:48;7.07;;;5.60;;
12171;SDS011;6149;52.418;13.668;2023-11-19T08:22:14;8.57;;;6.53;;
12171;SDS011;6149;52.418;13.668;2023-11-19T08:24:41;8.87;;;6.47;;
12171;SDS011;6149;52.418;13.668;2023-11-19T08:27:10;8.80;;;6.10;;
12171;SDS011;6149;52.418;13.668;2023-11-19T08:29:36;8.30;;;6.63;;
12171;SDS011;6149;52.418;13.668;2023-11-19T08:32:03;8.77;;;6.50;;
12171;SDS011;6149;52.418;13.668;2023-11-19T08:34:31;7.83;;;6.13;;
12171;SDS011;6149;52.418;13.668;2023-11-19T08:36:58;8.03;;;6.77;;
12171;SDS011;6149;52.418;13.668;2023-11-19T08:39:25;9.13;;;7.63;;
12171;SDS011;6149;52.418;13.668;2023-11-19T08:41:52;9.50;;;7.53;;
12171;SDS011;6149;52.418;13.668;2023-11-19T08:44:22;8.70;;;7.50;;
12171;SDS011;6149;52.418;13.668;2023-11-19T08:46:55;9.57;;;7.50;;
12171;SDS011;6149;52.418;13.668;2023-11-19T08:49:22;9.97;;;7.67;;
12171;SDS011;6149;52.418;13.668;2023-11-19T08:51:49;8.63;;;7.60;;
12171;SDS011;6149;52.418;13.668;2023-11-19T08:54:15;11.50;;;8.60;;
12171;SDS011;6149;52.418;13.668;2023-11-19T08:56:42;11.10;;;9.13;;
12171;SDS011;6149;52.418;13.668;2023-11-19T08:59:09;12.03;;;9.80;;
12171;SDS011;6149;52.418;13.668;2023-11-19T09:01:37;12.60;;;9.67;;
12171;SDS011;6149;52.418;13.668;2023-11-19T09:04:04;10.63;;;9.00;;
12171;SDS011;6149;52.418;13.668;2023-11-19T09:06:31;10.23;;;8.30;;
12171;SDS011;6149;52.418;13.668;2023-11-19T09:08:59;11.73;;;8.50;;
12171;SDS011;6149;52.418;13.668;2023-11-19T09:11:33;11.77;;;9.20;;
12171;SDS011;6149;52.418;13.668;2023-11-19T09:14:01;12.97;;;10.03;;
12171;SDS011;6149;52.418;13.668;2023-11-19T09:16:29;12.50;;;9.77;;
12171;SDS011;6149;52.418;13.668;2023-11-19T09:19:00;11.40;;;9.57;;
12171;SDS011;6149;52.418;13.668;2023-11-19T09:21:30;14.63;;;10.27;;
12171;SDS011;6149;52.418;13.668;2023-11-19T09:24:07;12.37;;;10.53;;
12171;SDS011;6149;52.418;13.668;2023-11-19T09:26:34;14.73;;;10.00;;
12171;SDS011;6149;52.418;13.668;2023-11-19T09:29:01;11.70;;;9.43;;
12171;SDS011;6149;52.418;13.668;2023-11-19T09:31:29;11.80;;;9.37;;
12171;SDS011;6149;52.418;13.668;2023-11-19T09:33:55;11.50;;;9.40;;
12171;SDS011;6149;52.418;13.668;2023-11-19T09:36:25;13.13;;;9.70;;
12171;SDS011;6149;52.418;13.668;2023-11-19T09:38:52;11.67;;;8.70;;
12171;SDS011;6149;52.418;13.668;2023-11-19T09:41:18;11.87;;;9.10;;
12171;SDS011;6149;52.418;13.668;2023-11-19T09:43:45;10.40;;;8.13;;
12171;SDS011;6149;52.418;13.668;2023-11-19T09:46:12;12.10;;;8.90;;
12171;SDS011;6149;52.418;13.668;2023-11-19T09:48:41;12.53;;;9.63;;
12171;SDS011;6149;52.418;13.668;2023-11-19T09:51:11;11.63;;;9.60;;
12171;SDS011;6149;52.418;13.668;2023-11-19T09:53:39;11.73;;;8.87;;
12171;SDS011;6149;52.418;13.668;2023-11-19T09:56:11;8.23;;;7.43;;
12171;SDS011;6149;52.418;13.668;2023-11-19T09:58:39;9.77;;;7.60;;
12171;SDS011;6149;52.418;13.668;2023-11-19T10:01:06;11.07;;;8.07;;
12171;SDS011;6149;52.418;13.668;2023-11-19T10:03:37;10.90;;;8.00;;
12171;SDS011;6149;52.418;13.668;2023-11-19T10:06:06;9.70;;;8.17;;
12171;SDS011;6149;52.418;13.668;2023-11-19T10:08:43;11.07;;;7.30;;
12171;SDS011;6149;52.418;13.668;2023-11-19T10:11:10;8.00;;;6.63;;
12171;SDS011;6149;52.418;13.668;2023-11-19T10:13:38;9.23;;;6.97;;
12171;SDS011;6149;52.418;13.668;2023-11-19T10:16:07;9.57;;;5.77;;
12171;SDS011;6149;52.418;13.668;2023-11-19T10:18:39;8.20;;;5.73;;
12171;SDS011;6149;52.418;13.668;2023-11-19T10:21:48;8.10;;;4.90;;
12171;SDS011;6149;52.418;13.668;2023-11-19T10:24:16;7.67;;;5.00;;
12171;SDS011;6149;52.418;13.668;2023-11-19T10:26:42;8.10;;;4.80;;
12171;SDS011;6149;52.418;13.668;2023-11-19T10:29:12;7.77;;;4.80;;
12171;SDS011;6149;52.418;13.668;2023-11-19T10:31:41;7.40;;;4.37;;
12171;SDS011;6149;52.418;13.668;2023-11-19T10:34:24;11.10;;;4.87;;
12171;SDS011;6149;52.418;13.668;2023-11-19T10:36:54;8.80;;;4.27;;
12171;SDS011;6149;52.418;13.668;2023-11-19T10:39:24;10.93;;;4.60;;
12171;SDS011;6149;52.418;13.668;2023-11-19T10:42:21;10.37;;;4.90;;
12171;SDS011;6149;52.418;13.668;2023-11-19T10:44:48;10.30;;;4.40;;
12171;SDS011;6149;52.418;13.668;2023-11-19T10:47:15;11.47;;;4.77;;
12171;SDS011;6149;52.418;13.668;2023-11-19T10:49:51;13.50;;;4.93;;
12171;SDS011;6149;52.418;13.668;2023-11-19T10:52:27;9.97;;;5.00;;
12171;SDS011;6149;52.418;13.668;2023-11-19T10:54:55;12.10;;;4.53;;
12171;SDS011;6149;52.418;13.668;2023-11-19T10:57:26;8.47;;;4.10;;
12171;SDS011;6149;52.418;13.668;2023-11-19T11:00:00;8.30;;;3.93;;
12171;SDS011;6149;52.418;13.668;2023-11-19T11:02:30;8.60;;;4.37;;
12171;SDS011;6149;52.418;13.668;2023-11-19T11:05:02;7.83;;;4.37;;
12171;SDS011;6149;52.418;13.668;2023-11-19T11:07:29;6.87;;;3.90;;
12171;SDS011;6149;52.418;13.668;2023-11-19T11:09:59;9.73;;;3.80;;
12171;SDS011;6149;52.418;13.668;2023-11-19T11:12:28;6.00;;;3.87;;
12171;SDS011;6149;52.418;13.668;2023-11-19T11:15:05;9.13;;;3.70;;
12171;SDS011;6149;52.418;13.668;2023-11-19T11:17:34;7.80;;;3.70;;
12171;SDS011;6149;52.418;13.668;2023-11-19T11:20:02;9.67;;;3.50;;
12171;SDS011;6149;52.418;13.668;2023-11-19T11:22:33;9.97;;;3.67;;
12171;SDS011;6149;52.418;13.668;2023-11-19T11:25:31;10.53;;;3.57;;
12171;SDS011;6149;52.418;13.668;2023-11-19T11:28:13;10.27;;;3.60;;
12171;SDS011;6149;52.418;13.668;2023-11-19T11:31:00;9.77;;;3.30;;
12171;SDS011;6149;52.418;13.668;2023-11-19T11:33:40;11.10;;;3.47;;
12171;SDS011;6149;52.418;13.668;2023-11-19T11:36:25;11.30;;;3.50;;
12171;SDS011;6149;52.418;13.668;2023-11-19T11:38:53;9.30;;;3.00;;
12171;SDS011;6149;52.418;13.668;2023-11-19T11:41:26;8.77;;;3.57;;
12171;SDS011;6149;52.418;13.668;2023-11-19T11:43:56;7.97;;;3.40;;
12171;SDS011;6149;52.418;13.668;2023-11-19T11:49:26;10.83;;;3.73;;
12171;SDS011;6149;52.418;13.668;2023-11-19T11:52:02;11.47;;;3.70;;
12171;SDS011;6149;52.418;13.668;2023-11-19T11:54:30;9.57;;;3.20;;
12171;SDS011;6149;52.418;13.668;2023-11-19T11:57:10;9.30;;;3.97;;
12171;SDS011;6149;52.418;13.668;2023-11-19T11:59:42;12.03;;;3.83;;
12171;SDS011;6149;52.418;13.668;2023-11-19T12:02:12;10.43;;;3.67;;
12171;SDS011;6149;52.418;13.668;2023-11-19T12:04:48;12.10;;;4.03;;
12171;SDS011;6149;52.418;13.668;2023-11-19T12:07:18;18.20;;;4.33;;
12171;SDS011;6149;52.418;13.668;2023-11-19T12:09:51;18.17;;;4.17;;
12171;SDS011;6149;52.418;13.668;2023-11-19T12:12:26;11.93;;;4.07;;
12171;SDS011;6149;52.418;13.668;2023-11-19T12:15:01;16.77;;;4.93;;
12171;SDS011;6149;52.418;13.668;2023-11-19T12:17:36;14.10;;;4.23;;
12171;SDS011;6149;52.418;13.668;2023-11-19T12:20:06;11.77;;;4.60;;
12171;SDS011;6149;52.418;13.668;2023-11-19T12:22:34;12.33;;;4.00;;
12171;SDS011;6149;52.418;13.668;2023-11-19T12:25:03;10.27;;;4.27;;
12171;SDS011;6149;52.418;13.668;2023-11-19T12:27:33;11.27;;;4.40;;
12171;SDS011;6149;52.418;13.668;2023-11-19T12:30:00;14.60;;;4.40;;
12171;SDS011;6149;52.418;13.668;2023-11-19T12:32:36;14.10;;;4.20;;
12171;SDS011;6149;52.418;13.668;2023-11-19T12:35:07;14.00;;;4.20;;
12171;SDS011;6149;52.418;13.668;2023-11-19T12:37:39;14.37;;;4.80;;
12171;SDS011;6149;52.418;13.668;2023-11-19T12:40:11;14.07;;;4.53;;
12171;SDS011;6149;52.418;13.668;2023-11-19T12:42:41;16.83;;;4.80;;
12171;SDS011;6149;52.418;13.668;2023-11-19T12:45:08;13.80;;;4.00;;
12171;SDS011;6149;52.418;13.668;2023-11-19T12:47:37;18.33;;;4.60;;
12171;SDS011;6149;52.418;13.668;2023-11-19T12:50:04;14.27;;;4.10;;
12171;SDS011;6149;52.418;13.668;2023-11-19T12:52:32;14.93;;;4.77;;
12171;SDS011;6149;52.418;13.668;2023-11-19T12:54:59;17.20;;;4.43;;
12171;SDS011;6149;52.418;13.668;2023-11-19T12:57:35;13.57;;;4.57;;
12171;SDS011;6149;52.418;13.668;2023-11-19T13:00:05;11.97;;;4.30;;
12171;SDS011;6149;52.418;13.668;2023-11-19T13:02:45;14.97;;;4.67;;
12171;SDS011;6149;52.418;13.668;2023-11-19T13:05:23;15.87;;;4.97;;
12171;SDS011;6149;52.418;13.668;2023-11-19T13:07:57;17.53;;;4.80;;
12171;SDS011;6149;52.418;13.668;2023-11-19T13:10:26;15.97;;;4.30;;
12171;SDS011;6149;52.418;13.668;2023-11-19T13:13:05;20.33;;;5.23;;
12171;SDS011;6149;52.418;13.668;2023-11-19T13:15:34;22.20;;;5.10;;
12171;SDS011;6149;52.418;13.668;2023-11-19T13:18:01;11.93;;;4.30;;
12171;SDS011;6149;52.418;13.668;2023-11-19T13:20:29;15.47;;;5.03;;
12171;SDS011;6149;52.418;13.668;2023-11-19T13:22:57;17.87;;;5.13;;
12171;SDS011;6149;52.418;13.668;2023-11-19T13:25:24;17.30;;;4.80;;
12171;SDS011;6149;52.418;13.668;2023-11-19T13:27:52;19.27;;;5.57;;
12171;SDS011;6149;52.418;13.668;2023-11-19T13:30:19;22.77;;;5.37;;
12171;SDS011;6149;52.418;13.668;2023-11-19T13:32:48;13.30;;;4.93;;
12171;SDS011;6149;52.418;13.668;2023-11-19T13:35:15;16.17;;;5.10;;
12171;SDS011;6149;52.418;13.668;2023-11-19T13:37:43;15.30;;;4.70;;
12171;SDS011;6149;52.418;13.668;2023-11-19T13:40:10;13.30;;;4.50;;
12171;SDS011;6149;52.418;13.668;2023-11-19T13:42:40;17.47;;;4.60;;
12171;SDS011;6149;52.418;13.668;2023-11-19T13:45:07;14.23;;;5.03;;
12171;SDS011;6149;52.418;13.668;2023-11-19T13:47:37;12.23;;;5.00;;
12171;SDS011;6149;52.418;13.668;2023-11-19T13:50:07;17.10;;;5.30;;
12171;SDS011;6149;52.418;13.668;2023-11-19T13:52:38;15.33;;;4.93;;
12171;SDS011;6149;52.418;13.668;2023-11-19T13:55:07;22.27;;;5.63;;
12171;SDS011;6149;52.418;13.668;2023-11-19T13:57:35;18.67;;;4.77;;
12171;SDS011;6149;52.418;13.668;2023-11-19T14:00:03;18.13;;;5.80;;
12171;SDS011;6149;52.418;13.668;2023-11-19T14:02:32;15.67;;;5.00;;
12171;SDS011;6149;52.418;13.668;2023-11-19T14:04:58;16.03;;;4.77;;
12171;SDS011;6149;52.418;13.668;2023-11-19T14:07:26;17.07;;;5.80;;
12171;SDS011;6149;52.418;13.668;2023-11-19T14:09:53;17.10;;;5.70;;
12171;SDS011;6149;52.418;13.668;2023-11-19T14:12:20;19.53;;;5.30;;
12171;SDS011;6149;52.418;13.668;2023-11-19T14:14:47;11.87;;;4.43;;
12171;SDS011;6149;52.418;13.668;2023-11-19T14:17:13;17.03;;;5.93;;
12171;SDS011;6149;52.418;13.668;2023-11-19T14:19:40;17.63;;;5.67;;
12171;SDS011;6149;52.418;13.668;2023-11-19T14:22:07;22.40;;;5.67;;
12171;SDS011;6149;52.418;13.668;2023-11-19T14:24:35;18.33;;;5.40;;
12171;SDS011;6149;52.418;13.668;2023-11-19T14:27:02;18.87;;;5.17;;
12171;SDS011;6149;52.418;13.668;2023-11-19T14:29:29;19.33;;;5.67;;
12171;SDS011;6149;52.418;13.668;2023-11-19T14:31:56;19.23;;;6.00;;
12171;SDS011;6149;52.418;13.668;2023-11-19T14:34:23;20.53;;;5.40;;
12171;SDS011;6149;52.418;13.668;2023-11-19T14:36:51;19.90;;;5.80;;
12171;SDS011;6149;52.418;13.668;2023-11-19T14:39:20;18.10;;;5.43;;
12171;SDS011;6149;52.418;13.668;2023-11-19T14:41:51;18.60;;;5.40;;
12171;SDS011;6149;52.418;13.668;2023-11-19T14:44:22;17.57;;;5.80;;
12171;SDS011;6149;52.418;13.668;2023-11-19T14:46:53;17.37;;;5.23;;
12171;SDS011;6149;52.418;13.668;2023-11-19T14:49:19;25.20;;;4.90;;
12171;SDS011;6149;52.418;13.668;2023-11-19T14:51:46;17.80;;;5.33;;
12171;SDS011;6149;52.418;13.668;2023-11-19T14:54:16;17.53;;;5.07;;
12171;SDS011;6149;52.418;13.668;2023-11-19T14:56:43;32.43;;;5.60;;